sensor_id;sensor_type;location;lat;lon;timestamp;temperature;humidity
18191;DHT22;47004;51.366;12.348;2023-05-16T00:00:20;12.50;99.90
18191;DHT22;47004;51.366;12.348;2023-05-16T00:02:24;12.40;99.90
18191;DHT22;47004;51.366;12.348;2023-05-16T00:04:26;12.40;99.90
18191;DHT22;47004;51.366;12.348;2023-05-16T00:06:28;12.40;99.90
18191;DHT22;47004;51.366;12.348;2023-05-16T00:08:32;12.40;99.90
18191;DHT22;47004;51.366;12.348;2023-05-16T00:10:34;12.30;99.90
18191;DHT22;47004;51.366;12.348;2023-05-16T00:12:37;12.30;99.90
18191;DHT22;47004;51.366;12.348;2023-05-16T00:14:39;12.30;99.90
18191;DHT22;47004;51.366;12.348;2023-05-16T00:16:42;12.30;99.90
18191;DHT22;47004;51.366;12.348;2023-05-16T00:18:44;12.30;99.90
18191;DHT22;47004;51.366;12.348;2023-05-16T00:20:46;12.20;99.90
18191;DHT22;47004;51.366;12.348;2023-05-16T00:22:48;12.20;99.90
18191;DHT22;47004;51.366;12.348;2023-05-16T00:24:52;12.20;99.90
18191;DHT22;47004;51.366;12.348;2023-05-16T00:26:54;12.20;99.90
18191;DHT22;47004;51.366;12.348;2023-05-16T00:28:58;12.10;99.90
18191;DHT22;47004;51.366;12.348;2023-05-16T00:31:00;12.10;99.90
18191;DHT22;47004;51.366;12.348;2023-05-16T00:33:03;12.10;99.90
18191;DHT22;47004;51.366;12.348;2023-05-16T00:35:06;12.10;99.90
18191;DHT22;47004;51.366;12.348;2023-05-16T00:37:11;12.10;99.90
18191;DHT22;47004;51.366;12.348;2023-05-16T00:39:13;12.00;99.90
18191;DHT22;47004;51.366;12.348;2023-05-16T00:41:17;12.00;99.90
18191;DHT22;47004;51.366;12.348;2023-05-16T00:43:19;12.00;99.90
18191;DHT22;47004;51.366;12.348;2023-05-16T00:45:21;12.00;99.90
18191;DHT22;47004;51.366;12.348;2023-05-16T00:47:23;12.00;99.90
18191;DHT22;47004;51.366;12.348;2023-05-16T00:49:25;12.00;99.90
18191;DHT22;47004;51.366;12.348;2023-05-16T00:51:27;11.90;99.90
18191;DHT22;47004;51.366;12.348;2023-05-16T00:53:29;11.90;99.90
18191;DHT22;47004;51.366;12.348;2023-05-16T00:55:31;11.90;99.90
18191;DHT22;47004;51.366;12.348;2023-05-16T00:57:35;11.80;99.90
18191;DHT22;47004;51.366;12.348;2023-05-16T00:59:37;11.80;99.90
18191;DHT22;47004;51.366;12.348;2023-05-16T01:01:40;11.80;99.90
18191;DHT22;47004;51.366;12.348;2023-05-16T01:03:44;11.70;99.90
18191;DHT22;47004;51.366;12.348;2023-05-16T01:05:47;11.70;99.90
18191;DHT22;47004;51.366;12.348;2023-05-16T01:07:49;11.70;99.90
18191;DHT22;47004;51.366;12.348;2023-05-16T01:09:51;11.70;99.90
18191;DHT22;47004;51.366;12.348;2023-05-16T01:11:59;11.60;99.90
18191;DHT22;47004;51.366;12.348;2023-05-16T01:14:16;11.60;99.90
18191;DHT22;47004;51.366;12.348;2023-05-16T01:16:21;11.60;99.90
18191;DHT22;47004;51.366;12.348;2023-05-16T01:18:32;11.60;99.90
18191;DHT22;47004;51.366;12.348;2023-05-16T01:20:44;11.50;99.90
18191;DHT22;47004;51.366;12.348;2023-05-16T01:23:04;11.50;99.90
18191;DHT22;47004;51.366;12.348;2023-05-16T01:25:20;11.50;99.90
18191;DHT22;47004;51.366;12.348;2023-05-16T01:27:28;11.40;99.90
18191;DHT22;47004;51.366;12.348;2023-05-16T01:29:32;11.40;99.90
18191;DHT22;47004;51.366;12.348;2023-05-16T01:31:34;11.40;99.90
18191;DHT22;47004;51.366;12.348;2023-05-16T01:33:36;11.40;99.90
18191;DHT22;47004;51.366;12.348;2023-05-16T01:35:44;11.30;99.90
18191;DHT22;47004;51.366;12.348;2023-05-16T01:37:51;11.30;99.90
18191;DHT22;47004;51.366;12.348;2023-05-16T01:40:03;11.30;99.90
18191;DHT22;47004;51.366;12.348;2023-05-16T01:42:11;11.20;99.90
18191;DHT22;47004;51.366;12.348;2023-05-16T01:44:18;11.20;99.90
18191;DHT22;47004;51.366;12.348;2023-05-16T01:46:26;10.90;99.90
18191;DHT22;47004;51.366;12.348;2023-05-16T01:48:34;11.20;99.90
18191;DHT22;47004;51.366;12.348;2023-05-16T01:50:40;11.20;99.90
18191;DHT22;47004;51.366;12.348;2023-05-16T01:52:48;11.20;99.90
18191;DHT22;47004;51.366;12.348;2023-05-16T01:54:57;11.20;99.90
18191;DHT22;47004;51.366;12.348;2023-05-16T01:57:03;11.10;99.90
18191;DHT22;47004;51.366;12.348;2023-05-16T01:59:08;11.10;99.90
18191;DHT22;47004;51.366;12.348;2023-05-16T02:01:12;11.10;99.90
18191;DHT22;47004;51.366;12.348;2023-05-16T02:03:14;11.00;99.90
18191;DHT22;47004;51.366;12.348;2023-05-16T02:05:16;11.00;99.90
18191;DHT22;47004;51.366;12.348;2023-05-16T02:07:21;11.10;99.90
18191;DHT22;47004;51.366;12.348;2023-05-16T02:09:32;11.00;99.90
18191;DHT22;47004;51.366;12.348;2023-05-16T02:11:36;10.90;99.90
18191;DHT22;47004;51.366;12.348;2023-05-16T02:13:38;10.90;99.90
18191;DHT22;47004;51.366;12.348;2023-05-16T02:15:39;10.90;99.90
18191;DHT22;47004;51.366;12.348;2023-05-16T02:17:43;10.90;99.90
18191;DHT22;47004;51.366;12.348;2023-05-16T02:19:45;10.80;99.90
18191;DHT22;47004;51.366;12.348;2023-05-16T02:21:47;10.80;99.90
18191;DHT22;47004;51.366;12.348;2023-05-16T02:23:49;10.70;99.90
18191;DHT22;47004;51.366;12.348;2023-05-16T02:25:53;10.70;99.90
18191;DHT22;47004;51.366;12.348;2023-05-16T02:27:58;10.60;99.90
18191;DHT22;47004;51.366;12.348;2023-05-16T02:30:01;10.60;99.90
18191;DHT22;47004;51.366;12.348;2023-05-16T02:32:05;10.50;99.90
18191;DHT22;47004;51.366;12.348;2023-05-16T02:34:08;10.40;99.90
18191;DHT22;47004;51.366;12.348;2023-05-16T02:36:10;10.40;99.90
18191;DHT22;47004;51.366;12.348;2023-05-16T02:38:12;10.30;99.90
18191;DHT22;47004;51.366;12.348;2023-05-16T02:40:17;10.30;99.90
18191;DHT22;47004;51.366;12.348;2023-05-16T02:42:19;10.30;99.90
18191;DHT22;47004;51.366;12.348;2023-05-16T02:44:21;10.20;99.90
18191;DHT22;47004;51.366;12.348;2023-05-16T02:46:24;10.30;99.90
18191;DHT22;47004;51.366;12.348;2023-05-16T02:48:26;10.10;99.90
18191;DHT22;47004;51.366;12.348;2023-05-16T02:50:30;10.10;99.90
18191;DHT22;47004;51.366;12.348;2023-05-16T02:52:32;10.00;99.90
18191;DHT22;47004;51.366;12.348;2023-05-16T02:54:34;10.00;99.90
18191;DHT22;47004;51.366;12.348;2023-05-16T02:56:36;9.90;99.90
18191;DHT22;47004;51.366;12.348;2023-05-16T02:58:38;9.90;99.90
18191;DHT22;47004;51.366;12.348;2023-05-16T03:00:40;9.90;99.90
18191;DHT22;47004;51.366;12.348;2023-05-16T03:02:42;9.90;99.90
18191;DHT22;47004;51.366;12.348;2023-05-16T03:04:44;9.80;99.90
18191;DHT22;47004;51.366;12.348;2023-05-16T03:06:47;9.80;99.90
18191;DHT22;47004;51.366;12.348;2023-05-16T03:08:50;9.90;99.90
18191;DHT22;47004;51.366;12.348;2023-05-16T03:10:52;9.80;99.90
18191;DHT22;47004;51.366;12.348;2023-05-16T03:12:54;9.80;99.90
18191;DHT22;47004;51.366;12.348;2023-05-16T03:14:57;9.80;99.90
18191;DHT22;47004;51.366;12.348;2023-05-16T03:16:59;9.80;99.90
18191;DHT22;47004;51.366;12.348;2023-05-16T03:19:01;9.70;99.90
18191;DHT22;47004;51.366;12.348;2023-05-16T03:21:03;9.70;99.90
18191;DHT22;47004;51.366;12.348;2023-05-16T03:23:06;9.60;99.90
18191;DHT22;47004;51.366;12.348;2023-05-16T03:25:08;9.60;99.90
18191;DHT22;47004;51.366;12.348;2023-05-16T03:27:10;9.60;99.90
18191;DHT22;47004;51.366;12.348;2023-05-16T03:29:12;9.60;99.90
18191;DHT22;47004;51.366;12.348;2023-05-16T03:31:14;9.50;99.90
18191;DHT22;47004;51.366;12.348;2023-05-16T03:33:16;9.50;99.90
18191;DHT22;47004;51.366;12.348;2023-05-16T03:35:19;9.50;99.90
18191;DHT22;47004;51.366;12.348;2023-05-16T03:37:21;9.50;99.90
18191;DHT22;47004;51.366;12.348;2023-05-16T03:39:24;9.50;99.90
18191;DHT22;47004;51.366;12.348;2023-05-16T03:41:26;9.40;99.90
18191;DHT22;47004;51.366;12.348;2023-05-16T03:43:28;9.50;99.90
18191;DHT22;47004;51.366;12.348;2023-05-16T03:45:30;9.40;99.90
18191;DHT22;47004;51.366;12.348;2023-05-16T03:47:32;9.40;99.90
18191;DHT22;47004;51.366;12.348;2023-05-16T03:49:34;9.50;99.90
18191;DHT22;47004;51.366;12.348;2023-05-16T03:51:37;9.40;99.90
18191;DHT22;47004;51.366;12.348;2023-05-16T03:53:38;9.40;99.90
18191;DHT22;47004;51.366;12.348;2023-05-16T03:55:42;9.40;99.90
18191;DHT22;47004;51.366;12.348;2023-05-16T03:57:44;9.40;99.90
18191;DHT22;47004;51.366;12.348;2023-05-16T03:59:47;9.40;99.90
18191;DHT22;47004;51.366;12.348;2023-05-16T04:01:49;9.50;99.90
18191;DHT22;47004;51.366;12.348;2023-05-16T04:03:51;9.50;99.90
18191;DHT22;47004;51.366;12.348;2023-05-16T04:05:53;9.50;99.90
18191;DHT22;47004;51.366;12.348;2023-05-16T04:07:55;9.50;99.90
18191;DHT22;47004;51.366;12.348;2023-05-16T04:09:57;9.60;99.90
18191;DHT22;47004;51.366;12.348;2023-05-16T04:12:01;9.60;99.90
18191;DHT22;47004;51.366;12.348;2023-05-16T04:14:03;9.60;99.90
18191;DHT22;47004;51.366;12.348;2023-05-16T04:16:06;9.60;99.90
18191;DHT22;47004;51.366;12.348;2023-05-16T04:18:08;9.60;99.90
18191;DHT22;47004;51.366;12.348;2023-05-16T04:20:10;9.70;99.90
18191;DHT22;47004;51.366;12.348;2023-05-16T04:22:12;9.70;99.90
18191;DHT22;47004;51.366;12.348;2023-05-16T04:24:15;9.70;99.90
18191;DHT22;47004;51.366;12.348;2023-05-16T04:26:17;9.70;99.90
18191;DHT22;47004;51.366;12.348;2023-05-16T04:28:22;9.70;99.90
18191;DHT22;47004;51.366;12.348;2023-05-16T04:30:24;9.70;99.90
18191;DHT22;47004;51.366;12.348;2023-05-16T04:32:26;9.70;99.90
18191;DHT22;47004;51.366;12.348;2023-05-16T04:34:30;9.80;99.90
18191;DHT22;47004;51.366;12.348;2023-05-16T04:36:33;9.80;99.90
18191;DHT22;47004;51.366;12.348;2023-05-16T04:38:35;9.80;99.90
18191;DHT22;47004;51.366;12.348;2023-05-16T04:40:37;9.80;99.90
18191;DHT22;47004;51.366;12.348;2023-05-16T04:42:41;9.80;99.90
18191;DHT22;47004;51.366;12.348;2023-05-16T04:44:44;9.90;99.90
18191;DHT22;47004;51.366;12.348;2023-05-16T04:46:47;9.90;99.90
18191;DHT22;47004;51.366;12.348;2023-05-16T04:48:51;9.90;99.90
18191;DHT22;47004;51.366;12.348;2023-05-16T04:50:53;9.90;99.90
18191;DHT22;47004;51.366;12.348;2023-05-16T04:52:55;9.90;99.90
18191;DHT22;47004;51.366;12.348;2023-05-16T04:54:57;9.90;99.90
18191;DHT22;47004;51.366;12.348;2023-05-16T04:57:00;10.00;99.90
18191;DHT22;47004;51.366;12.348;2023-05-16T04:59:02;10.00;99.90
18191;DHT22;47004;51.366;12.348;2023-05-16T05:01:05;9.90;99.90
18191;DHT22;47004;51.366;12.348;2023-05-16T05:03:07;9.90;99.90
18191;DHT22;47004;51.366;12.348;2023-05-16T05:05:09;10.00;99.90
18191;DHT22;47004;51.366;12.348;2023-05-16T05:07:11;9.90;99.90
18191;DHT22;47004;51.366;12.348;2023-05-16T05:09:14;9.90;99.90
18191;DHT22;47004;51.366;12.348;2023-05-16T05:11:17;10.00;99.90
18191;DHT22;47004;51.366;12.348;2023-05-16T05:13:18;10.00;99.90
18191;DHT22;47004;51.366;12.348;2023-05-16T05:15:20;10.00;99.90
18191;DHT22;47004;51.366;12.348;2023-05-16T05:17:24;10.00;99.90
18191;DHT22;47004;51.366;12.348;2023-05-16T05:19:26;10.00;99.90
18191;DHT22;47004;51.366;12.348;2023-05-16T05:21:28;10.00;99.90
18191;DHT22;47004;51.366;12.348;2023-05-16T05:23:30;10.00;99.90
18191;DHT22;47004;51.366;12.348;2023-05-16T05:25:33;10.00;99.90
18191;DHT22;47004;51.366;12.348;2023-05-16T05:27:36;10.00;99.90
18191;DHT22;47004;51.366;12.348;2023-05-16T05:29:40;10.10;99.90
18191;DHT22;47004;51.366;12.348;2023-05-16T05:31:42;10.10;99.90
18191;DHT22;47004;51.366;12.348;2023-05-16T05:33:45;10.10;99.90
18191;DHT22;47004;51.366;12.348;2023-05-16T05:35:47;10.10;99.90
18191;DHT22;47004;51.366;12.348;2023-05-16T05:37:51;10.10;99.90
18191;DHT22;47004;51.366;12.348;2023-05-16T05:39:53;10.10;99.90
18191;DHT22;47004;51.366;12.348;2023-05-16T05:41:55;10.20;99.90
18191;DHT22;47004;51.366;12.348;2023-05-16T05:43:58;10.20;99.90
18191;DHT22;47004;51.366;12.348;2023-05-16T05:46:00;10.20;99.90
18191;DHT22;47004;51.366;12.348;2023-05-16T05:48:02;10.20;99.90
18191;DHT22;47004;51.366;12.348;2023-05-16T05:50:07;10.30;99.90
18191;DHT22;47004;51.366;12.348;2023-05-16T05:52:10;10.30;99.90
18191;DHT22;47004;51.366;12.348;2023-05-16T05:54:13;10.30;99.90
18191;DHT22;47004;51.366;12.348;2023-05-16T05:56:14;10.30;99.90
18191;DHT22;47004;51.366;12.348;2023-05-16T05:58:17;10.40;99.90
18191;DHT22;47004;51.366;12.348;2023-05-16T06:00:21;10.40;99.90
18191;DHT22;47004;51.366;12.348;2023-05-16T06:02:23;10.40;99.90
18191;DHT22;47004;51.366;12.348;2023-05-16T06:04:25;10.50;99.90
18191;DHT22;47004;51.366;12.348;2023-05-16T06:06:28;10.50;99.90
18191;DHT22;47004;51.366;12.348;2023-05-16T06:08:30;10.50;99.90
18191;DHT22;47004;51.366;12.348;2023-05-16T06:10:32;10.50;99.90
18191;DHT22;47004;51.366;12.348;2023-05-16T06:12:34;10.50;99.90
18191;DHT22;47004;51.366;12.348;2023-05-16T06:14:36;10.50;99.90
18191;DHT22;47004;51.366;12.348;2023-05-16T06:16:38;10.50;99.90
18191;DHT22;47004;51.366;12.348;2023-05-16T06:18:40;10.60;99.90
18191;DHT22;47004;51.366;12.348;2023-05-16T06:20:43;10.60;99.90
18191;DHT22;47004;51.366;12.348;2023-05-16T06:22:46;10.60;99.90
18191;DHT22;47004;51.366;12.348;2023-05-16T06:24:48;10.70;99.90
18191;DHT22;47004;51.366;12.348;2023-05-16T06:26:50;10.70;99.90
18191;DHT22;47004;51.366;12.348;2023-05-16T06:28:52;10.80;99.90
18191;DHT22;47004;51.366;12.348;2023-05-16T06:30:54;10.80;99.90
18191;DHT22;47004;51.366;12.348;2023-05-16T06:32:56;10.90;99.90
18191;DHT22;47004;51.366;12.348;2023-05-16T06:34:58;10.90;99.90
18191;DHT22;47004;51.366;12.348;2023-05-16T06:37:00;10.90;99.90
18191;DHT22;47004;51.366;12.348;2023-05-16T06:39:04;11.00;99.90
18191;DHT22;47004;51.366;12.348;2023-05-16T06:41:07;11.00;99.90
18191;DHT22;47004;51.366;12.348;2023-05-16T06:43:09;11.00;99.90
18191;DHT22;47004;51.366;12.348;2023-05-16T06:45:11;11.00;99.90
18191;DHT22;47004;51.366;12.348;2023-05-16T06:47:13;11.00;99.90
18191;DHT22;47004;51.366;12.348;2023-05-16T06:49:15;11.10;99.90
18191;DHT22;47004;51.366;12.348;2023-05-16T06:51:17;11.10;99.90
18191;DHT22;47004;51.366;12.348;2023-05-16T06:53:19;11.10;99.90
18191;DHT22;47004;51.366;12.348;2023-05-16T06:55:22;11.20;99.90
18191;DHT22;47004;51.366;12.348;2023-05-16T06:57:24;11.20;99.90
18191;DHT22;47004;51.366;12.348;2023-05-16T06:59:26;11.20;99.90
18191;DHT22;47004;51.366;12.348;2023-05-16T07:01:28;11.30;99.90
18191;DHT22;47004;51.366;12.348;2023-05-16T07:03:30;11.30;99.90
18191;DHT22;47004;51.366;12.348;2023-05-16T07:05:32;11.30;99.90
18191;DHT22;47004;51.366;12.348;2023-05-16T07:07:34;11.40;99.90
18191;DHT22;47004;51.366;12.348;2023-05-16T07:09:36;11.30;99.90
18191;DHT22;47004;51.366;12.348;2023-05-16T07:11:39;11.30;99.90
18191;DHT22;47004;51.366;12.348;2023-05-16T07:13:42;11.30;99.90
18191;DHT22;47004;51.366;12.348;2023-05-16T07:15:44;11.30;99.90
18191;DHT22;47004;51.366;12.348;2023-05-16T07:17:46;11.30;99.90
18191;DHT22;47004;51.366;12.348;2023-05-16T07:19:48;11.40;99.90
18191;DHT22;47004;51.366;12.348;2023-05-16T07:21:50;11.30;99.90
18191;DHT22;47004;51.366;12.348;2023-05-16T07:23:53;11.30;99.90
18191;DHT22;47004;51.366;12.348;2023-05-16T07:25:55;11.30;99.90
18191;DHT22;47004;51.366;12.348;2023-05-16T07:27:58;11.30;99.90
18191;DHT22;47004;51.366;12.348;2023-05-16T07:30:00;11.30;99.90
18191;DHT22;47004;51.366;12.348;2023-05-16T07:32:03;11.30;99.90
18191;DHT22;47004;51.366;12.348;2023-05-16T07:34:05;11.30;99.90
18191;DHT22;47004;51.366;12.348;2023-05-16T07:36:07;11.30;99.90
18191;DHT22;47004;51.366;12.348;2023-05-16T07:38:09;11.30;99.90
18191;DHT22;47004;51.366;12.348;2023-05-16T07:40:12;11.40;99.90
18191;DHT22;47004;51.366;12.348;2023-05-16T07:42:15;11.40;99.90
18191;DHT22;47004;51.366;12.348;2023-05-16T07:44:21;11.50;99.90
18191;DHT22;47004;51.366;12.348;2023-05-16T07:46:23;11.60;99.90
18191;DHT22;47004;51.366;12.348;2023-05-16T07:48:25;11.60;99.90
18191;DHT22;47004;51.366;12.348;2023-05-16T07:50:27;11.60;99.90
18191;DHT22;47004;51.366;12.348;2023-05-16T07:52:29;11.70;99.90
18191;DHT22;47004;51.366;12.348;2023-05-16T07:54:31;11.70;99.90
18191;DHT22;47004;51.366;12.348;2023-05-16T07:56:36;11.70;99.90
18191;DHT22;47004;51.366;12.348;2023-05-16T07:58:38;11.80;99.90
18191;DHT22;47004;51.366;12.348;2023-05-16T08:00:41;11.90;99.90
18191;DHT22;47004;51.366;12.348;2023-05-16T08:02:44;12.00;99.90
18191;DHT22;47004;51.366;12.348;2023-05-16T08:04:46;12.10;99.90
18191;DHT22;47004;51.366;12.348;2023-05-16T08:06:48;12.10;99.90
18191;DHT22;47004;51.366;12.348;2023-05-16T08:08:50;12.20;99.90
18191;DHT22;47004;51.366;12.348;2023-05-16T08:10:52;12.20;99.90
18191;DHT22;47004;51.366;12.348;2023-05-16T08:12:54;12.30;99.90
18191;DHT22;47004;51.366;12.348;2023-05-16T08:14:56;12.40;99.90
18191;DHT22;47004;51.366;12.348;2023-05-16T08:16:59;12.50;99.90
18191;DHT22;47004;51.366;12.348;2023-05-16T08:19:01;12.50;99.90
18191;DHT22;47004;51.366;12.348;2023-05-16T08:21:04;12.50;99.90
18191;DHT22;47004;51.366;12.348;2023-05-16T08:23:08;12.50;99.90
18191;DHT22;47004;51.366;12.348;2023-05-16T08:25:10;12.60;99.90
18191;DHT22;47004;51.366;12.348;2023-05-16T08:27:12;12.60;99.90
18191;DHT22;47004;51.366;12.348;2023-05-16T08:29:14;12.60;99.90
18191;DHT22;47004;51.366;12.348;2023-05-16T08:31:16;12.70;99.90
18191;DHT22;47004;51.366;12.348;2023-05-16T08:33:20;12.90;99.90
18191;DHT22;47004;51.366;12.348;2023-05-16T08:35:22;13.00;99.90
18191;DHT22;47004;51.366;12.348;2023-05-16T08:37:24;13.10;99.90
18191;DHT22;47004;51.366;12.348;2023-05-16T08:39:26;13.20;99.90
18191;DHT22;47004;51.366;12.348;2023-05-16T08:41:30;13.30;99.90
18191;DHT22;47004;51.366;12.348;2023-05-16T08:43:32;13.50;99.90
18191;DHT22;47004;51.366;12.348;2023-05-16T08:45:36;13.50;99.90
18191;DHT22;47004;51.366;12.348;2023-05-16T08:47:39;13.50;99.90
18191;DHT22;47004;51.366;12.348;2023-05-16T08:49:50;13.50;99.90
18191;DHT22;47004;51.366;12.348;2023-05-16T08:51:56;13.40;99.90
18191;DHT22;47004;51.366;12.348;2023-05-16T08:54:02;13.40;99.90
18191;DHT22;47004;51.366;12.348;2023-05-16T08:56:04;13.40;99.90
18191;DHT22;47004;51.366;12.348;2023-05-16T08:58:08;13.40;99.90
18191;DHT22;47004;51.366;12.348;2023-05-16T09:00:12;13.50;99.90
18191;DHT22;47004;51.366;12.348;2023-05-16T09:02:14;13.50;99.90
18191;DHT22;47004;51.366;12.348;2023-05-16T09:04:16;13.60;99.90
18191;DHT22;47004;51.366;12.348;2023-05-16T09:06:20;13.70;99.90
18191;DHT22;47004;51.366;12.348;2023-05-16T09:08:22;13.70;99.90
18191;DHT22;47004;51.366;12.348;2023-05-16T09:10:25;13.80;99.90
18191;DHT22;47004;51.366;12.348;2023-05-16T09:12:27;13.90;99.90
18191;DHT22;47004;51.366;12.348;2023-05-16T09:14:29;13.90;99.90
18191;DHT22;47004;51.366;12.348;2023-05-16T09:16:31;13.90;99.90
18191;DHT22;47004;51.366;12.348;2023-05-16T09:18:33;13.90;99.90
18191;DHT22;47004;51.366;12.348;2023-05-16T09:20:42;13.80;99.90
18191;DHT22;47004;51.366;12.348;2023-05-16T09:22:52;13.80;99.90
18191;DHT22;47004;51.366;12.348;2023-05-16T09:24:54;13.70;99.90
18191;DHT22;47004;51.366;12.348;2023-05-16T09:26:56;13.70;99.90
18191;DHT22;47004;51.366;12.348;2023-05-16T09:28:58;13.70;99.90
18191;DHT22;47004;51.366;12.348;2023-05-16T09:31:00;13.70;99.90
18191;DHT22;47004;51.366;12.348;2023-05-16T09:33:02;13.80;99.90
18191;DHT22;47004;51.366;12.348;2023-05-16T09:35:04;13.70;99.90
18191;DHT22;47004;51.366;12.348;2023-05-16T09:37:08;13.80;99.90
18191;DHT22;47004;51.366;12.348;2023-05-16T09:39:14;13.80;99.90
18191;DHT22;47004;51.366;12.348;2023-05-16T09:41:16;13.90;99.90
18191;DHT22;47004;51.366;12.348;2023-05-16T09:43:21;13.90;99.90
18191;DHT22;47004;51.366;12.348;2023-05-16T09:45:24;13.80;99.90
18191;DHT22;47004;51.366;12.348;2023-05-16T09:47:27;13.80;99.90
18191;DHT22;47004;51.366;12.348;2023-05-16T09:49:29;13.70;99.90
18191;DHT22;47004;51.366;12.348;2023-05-16T09:51:31;13.70;99.90
18191;DHT22;47004;51.366;12.348;2023-05-16T09:53:34;13.60;99.90
18191;DHT22;47004;51.366;12.348;2023-05-16T09:55:37;13.60;99.90
18191;DHT22;47004;51.366;12.348;2023-05-16T09:57:39;13.60;99.90
18191;DHT22;47004;51.366;12.348;2023-05-16T09:59:41;13.50;99.90
18191;DHT22;47004;51.366;12.348;2023-05-16T10:01:43;13.50;99.90
18191;DHT22;47004;51.366;12.348;2023-05-16T10:03:45;13.40;99.90
18191;DHT22;47004;51.366;12.348;2023-05-16T10:05:49;13.30;99.90
18191;DHT22;47004;51.366;12.348;2023-05-16T10:07:54;13.30;99.90
18191;DHT22;47004;51.366;12.348;2023-05-16T10:09:57;13.30;99.90
18191;DHT22;47004;51.366;12.348;2023-05-16T10:12:02;13.30;99.90
18191;DHT22;47004;51.366;12.348;2023-05-16T10:14:08;13.30;99.90
18191;DHT22;47004;51.366;12.348;2023-05-16T10:16:13;13.30;99.90
18191;DHT22;47004;51.366;12.348;2023-05-16T10:18:16;13.30;99.90
18191;DHT22;47004;51.366;12.348;2023-05-16T10:20:19;13.40;99.90
18191;DHT22;47004;51.366;12.348;2023-05-16T10:22:22;13.40;99.90
18191;DHT22;47004;51.366;12.348;2023-05-16T10:24:30;13.50;99.90
18191;DHT22;47004;51.366;12.348;2023-05-16T10:26:37;13.60;99.90
18191;DHT22;47004;51.366;12.348;2023-05-16T10:28:41;13.60;99.90
18191;DHT22;47004;51.366;12.348;2023-05-16T10:30:44;13.70;99.90
18191;DHT22;47004;51.366;12.348;2023-05-16T10:32:46;13.70;99.90
18191;DHT22;47004;51.366;12.348;2023-05-16T10:34:51;13.70;99.90
18191;DHT22;47004;51.366;12.348;2023-05-16T10:36:55;13.70;99.90
18191;DHT22;47004;51.366;12.348;2023-05-16T10:38:57;13.60;99.90
18191;DHT22;47004;51.366;12.348;2023-05-16T10:41:01;13.60;99.90
18191;DHT22;47004;51.366;12.348;2023-05-16T10:43:04;13.60;99.90
18191;DHT22;47004;51.366;12.348;2023-05-16T10:45:16;13.50;99.90
18191;DHT22;47004;51.366;12.348;2023-05-16T10:47:18;13.50;99.90
18191;DHT22;47004;51.366;12.348;2023-05-16T10:49:21;13.40;99.90
18191;DHT22;47004;51.366;12.348;2023-05-16T10:51:34;13.40;99.90
18191;DHT22;47004;51.366;12.348;2023-05-16T10:53:37;13.30;99.90
18191;DHT22;47004;51.366;12.348;2023-05-16T10:55:39;13.20;99.90
18191;DHT22;47004;51.366;12.348;2023-05-16T10:57:43;13.20;99.90
18191;DHT22;47004;51.366;12.348;2023-05-16T10:59:47;13.10;99.90
18191;DHT22;47004;51.366;12.348;2023-05-16T11:01:54;13.10;99.90
18191;DHT22;47004;51.366;12.348;2023-05-16T11:04:08;13.10;99.90
18191;DHT22;47004;51.366;12.348;2023-05-16T11:06:12;13.10;99.90
18191;DHT22;47004;51.366;12.348;2023-05-16T11:08:21;13.00;99.90
18191;DHT22;47004;51.366;12.348;2023-05-16T11:10:23;13.00;99.90
18191;DHT22;47004;51.366;12.348;2023-05-16T11:14:52;13.00;99.90
18191;DHT22;47004;51.366;12.348;2023-05-16T11:17:01;13.10;99.90
18191;DHT22;47004;51.366;12.348;2023-05-16T11:19:04;13.10;99.90
18191;DHT22;47004;51.366;12.348;2023-05-16T11:21:06;13.20;99.90
18191;DHT22;47004;51.366;12.348;2023-05-16T11:23:22;13.30;99.90
18191;DHT22;47004;51.366;12.348;2023-05-16T11:25:34;13.40;99.90
18191;DHT22;47004;51.366;12.348;2023-05-16T11:27:42;13.50;99.90
18191;DHT22;47004;51.366;12.348;2023-05-16T11:29:44;13.60;99.90
18191;DHT22;47004;51.366;12.348;2023-05-16T11:31:47;13.70;99.90
18191;DHT22;47004;51.366;12.348;2023-05-16T11:33:50;13.80;99.90
18191;DHT22;47004;51.366;12.348;2023-05-16T11:36:00;13.80;99.90
18191;DHT22;47004;51.366;12.348;2023-05-16T11:38:02;13.70;99.90
18191;DHT22;47004;51.366;12.348;2023-05-16T11:40:06;13.70;99.90
18191;DHT22;47004;51.366;12.348;2023-05-16T11:42:09;13.70;99.90
18191;DHT22;47004;51.366;12.348;2023-05-16T11:44:11;13.70;99.90
18191;DHT22;47004;51.366;12.348;2023-05-16T11:46:16;13.70;99.90
18191;DHT22;47004;51.366;12.348;2023-05-16T11:48:23;13.70;99.90
18191;DHT22;47004;51.366;12.348;2023-05-16T11:50:26;13.80;99.90
18191;DHT22;47004;51.366;12.348;2023-05-16T11:52:28;13.80;99.90
18191;DHT22;47004;51.366;12.348;2023-05-16T11:54:31;13.90;99.90
18191;DHT22;47004;51.366;12.348;2023-05-16T11:56:35;14.00;99.90
18191;DHT22;47004;51.366;12.348;2023-05-16T11:58:38;14.10;99.90
18191;DHT22;47004;51.366;12.348;2023-05-16T12:00:47;14.20;99.90
18191;DHT22;47004;51.366;12.348;2023-05-16T12:02:49;14.20;99.90
18191;DHT22;47004;51.366;12.348;2023-05-16T12:04:51;14.40;99.90
18191;DHT22;47004;51.366;12.348;2023-05-16T12:06:59;14.50;99.90
18191;DHT22;47004;51.366;12.348;2023-05-16T12:09:02;14.50;99.90
18191;DHT22;47004;51.366;12.348;2023-05-16T12:11:10;14.50;99.90
18191;DHT22;47004;51.366;12.348;2023-05-16T12:13:12;14.50;99.90
18191;DHT22;47004;51.366;12.348;2023-05-16T12:15:15;14.40;99.90
18191;DHT22;47004;51.366;12.348;2023-05-16T12:17:17;14.40;99.90
18191;DHT22;47004;51.366;12.348;2023-05-16T12:19:22;14.30;99.90
18191;DHT22;47004;51.366;12.348;2023-05-16T12:21:24;14.30;99.90
18191;DHT22;47004;51.366;12.348;2023-05-16T12:23:27;14.40;99.90
18191;DHT22;47004;51.366;12.348;2023-05-16T12:25:32;14.50;99.90
18191;DHT22;47004;51.366;12.348;2023-05-16T12:27:36;14.50;99.90
18191;DHT22;47004;51.366;12.348;2023-05-16T12:29:46;14.60;99.90
18191;DHT22;47004;51.366;12.348;2023-05-16T12:31:51;14.70;99.90
18191;DHT22;47004;51.366;12.348;2023-05-16T12:33:54;14.80;99.90
18191;DHT22;47004;51.366;12.348;2023-05-16T12:35:57;14.90;99.90
18191;DHT22;47004;51.366;12.348;2023-05-16T12:38:03;15.00;99.90
18191;DHT22;47004;51.366;12.348;2023-05-16T12:40:10;15.10;99.90
18191;DHT22;47004;51.366;12.348;2023-05-16T12:42:14;15.20;99.90
18191;DHT22;47004;51.366;12.348;2023-05-16T12:44:17;15.40;99.90
18191;DHT22;47004;51.366;12.348;2023-05-16T12:46:19;15.50;99.90
18191;DHT22;47004;51.366;12.348;2023-05-16T12:48:21;15.40;99.90
18191;DHT22;47004;51.366;12.348;2023-05-16T12:50:25;15.40;99.90